sensor_id;sensor_type;location;lat;lon;timestamp;temperature;humidity
11764;DHT22;5939;56.522;14.950;2022-09-21T00:00:23;11.50;99.90
11764;DHT22;5939;56.522;14.950;2022-09-21T00:02:49;11.50;99.90
11764;DHT22;5939;56.522;14.950;2022-09-21T00:05:15;11.40;99.90
11764;DHT22;5939;56.522;14.950;2022-09-21T00:07:42;11.40;99.90
11764;DHT22;5939;56.522;14.950;2022-09-21T00:10:08;11.40;99.90
11764;DHT22;5939;56.522;14.950;2022-09-21T00:12:34;11.40;99.90
11764;DHT22;5939;56.522;14.950;2022-09-21T00:15:07;11.40;99.90
11764;DHT22;5939;56.522;14.950;2022-09-21T00:17:33;11.30;99.90
11764;DHT22;5939;56.522;14.950;2022-09-21T00:19:58;11.40;99.90
11764;DHT22;5939;56.522;14.950;2022-09-21T00:22:26;11.30;99.90
11764;DHT22;5939;56.522;14.950;2022-09-21T00:24:53;11.30;99.90
11764;DHT22;5939;56.522;14.950;2022-09-21T00:27:19;11.30;99.90
11764;DHT22;5939;56.522;14.950;2022-09-21T00:29:44;11.20;99.90
11764;DHT22;5939;56.522;14.950;2022-09-21T00:32:10;11.20;99.90
11764;DHT22;5939;56.522;14.950;2022-09-21T00:34:35;11.20;99.90
11764;DHT22;5939;56.522;14.950;2022-09-21T00:37:01;11.20;99.90
11764;DHT22;5939;56.522;14.950;2022-09-21T00:39:27;11.20;99.90
11764;DHT22;5939;56.522;14.950;2022-09-21T00:41:52;11.20;99.90
11764;DHT22;5939;56.522;14.950;2022-09-21T00:44:23;11.10;99.90
11764;DHT22;5939;56.522;14.950;2022-09-21T00:46:50;11.10;99.90
11764;DHT22;5939;56.522;14.950;2022-09-21T00:49:17;11.10;99.90
11764;DHT22;5939;56.522;14.950;2022-09-21T00:51:44;11.10;99.90
11764;DHT22;5939;56.522;14.950;2022-09-21T00:54:13;11.10;99.90
11764;DHT22;5939;56.522;14.950;2022-09-21T00:56:42;11.00;99.90
11764;DHT22;5939;56.522;14.950;2022-09-21T00:59:08;11.00;99.90
11764;DHT22;5939;56.522;14.950;2022-09-21T01:01:35;11.00;99.90
11764;DHT22;5939;56.522;14.950;2022-09-21T01:04:03;11.00;99.90
11764;DHT22;5939;56.522;14.950;2022-09-21T01:06:31;11.00;99.90
11764;DHT22;5939;56.522;14.950;2022-09-21T01:08:58;11.00;99.90
11764;DHT22;5939;56.522;14.950;2022-09-21T01:17:09;10.90;99.90
11764;DHT22;5939;56.522;14.950;2022-09-21T01:19:53;10.90;99.90
11764;DHT22;5939;56.522;14.950;2022-09-21T01:30:43;10.60;99.90
11764;DHT22;5939;56.522;14.950;2022-09-21T01:33:25;10.80;99.90
11764;DHT22;5939;56.522;14.950;2022-09-21T01:35:58;10.80;99.90
11764;DHT22;5939;56.522;14.950;2022-09-21T01:38:37;10.80;99.90
11764;DHT22;5939;56.522;14.950;2022-09-21T01:41:05;10.70;99.90
11764;DHT22;5939;56.522;14.950;2022-09-21T01:43:42;10.70;99.90
11764;DHT22;5939;56.522;14.950;2022-09-21T01:46:14;10.70;99.90
11764;DHT22;5939;56.522;14.950;2022-09-21T01:48:45;10.70;99.90
11764;DHT22;5939;56.522;14.950;2022-09-21T01:51:13;10.70;99.90
11764;DHT22;5939;56.522;14.950;2022-09-21T01:57:00;10.60;99.90
11764;DHT22;5939;56.522;14.950;2022-09-21T02:01:51;10.60;99.90
11764;DHT22;5939;56.522;14.950;2022-09-21T02:04:18;10.60;99.90
11764;DHT22;5939;56.522;14.950;2022-09-21T02:06:45;10.60;99.90
11764;DHT22;5939;56.522;14.950;2022-09-21T02:09:11;10.60;99.90
11764;DHT22;5939;56.522;14.950;2022-09-21T02:11:37;10.60;99.90
11764;DHT22;5939;56.522;14.950;2022-09-21T02:14:09;10.60;99.90
11764;DHT22;5939;56.522;14.950;2022-09-21T02:16:36;10.50;99.90
11764;DHT22;5939;56.522;14.950;2022-09-21T02:19:30;10.50;99.90
11764;DHT22;5939;56.522;14.950;2022-09-21T02:24:44;10.50;99.90
11764;DHT22;5939;56.522;14.950;2022-09-21T02:37:50;10.40;99.90
11764;DHT22;5939;56.522;14.950;2022-09-21T02:40:51;10.40;99.90
11764;DHT22;5939;56.522;14.950;2022-09-21T02:43:34;10.30;99.90
11764;DHT22;5939;56.522;14.950;2022-09-21T02:46:06;10.40;99.90
11764;DHT22;5939;56.522;14.950;2022-09-21T02:48:38;10.30;99.90
11764;DHT22;5939;56.522;14.950;2022-09-21T02:51:10;10.30;99.90
11764;DHT22;5939;56.522;14.950;2022-09-21T02:53:39;10.30;99.90
11764;DHT22;5939;56.522;14.950;2022-09-21T02:56:07;10.40;99.90
11764;DHT22;5939;56.522;14.950;2022-09-21T02:58:37;10.30;99.90
11764;DHT22;5939;56.522;14.950;2022-09-21T03:01:06;10.30;99.90
11764;DHT22;5939;56.522;14.950;2022-09-21T03:03:34;10.30;99.90
11764;DHT22;5939;56.522;14.950;2022-09-21T03:06:00;10.30;99.90
11764;DHT22;5939;56.522;14.950;2022-09-21T03:08:27;10.20;99.90
11764;DHT22;5939;56.522;14.950;2022-09-21T03:10:52;10.20;99.90
11764;DHT22;5939;56.522;14.950;2022-09-21T03:13:18;10.20;99.90
11764;DHT22;5939;56.522;14.950;2022-09-21T03:15:45;10.20;99.90
11764;DHT22;5939;56.522;14.950;2022-09-21T03:18:11;10.20;99.90
11764;DHT22;5939;56.522;14.950;2022-09-21T03:20:39;10.20;99.90
11764;DHT22;5939;56.522;14.950;2022-09-21T03:23:05;10.10;99.90
11764;DHT22;5939;56.522;14.950;2022-09-21T03:25:31;10.20;99.90
11764;DHT22;5939;56.522;14.950;2022-09-21T03:27:58;10.10;99.90
11764;DHT22;5939;56.522;14.950;2022-09-21T03:30:25;10.10;99.90
11764;DHT22;5939;56.522;14.950;2022-09-21T03:32:52;10.10;99.90
11764;DHT22;5939;56.522;14.950;2022-09-21T03:35:19;10.10;99.90
11764;DHT22;5939;56.522;14.950;2022-09-21T03:37:46;10.10;99.90
11764;DHT22;5939;56.522;14.950;2022-09-21T03:40:13;10.00;99.90
11764;DHT22;5939;56.522;14.950;2022-09-21T03:42:39;10.00;99.90
11764;DHT22;5939;56.522;14.950;2022-09-21T03:45:06;10.00;99.90
11764;DHT22;5939;56.522;14.950;2022-09-21T03:47:32;10.00;99.90
11764;DHT22;5939;56.522;14.950;2022-09-21T03:49:58;10.00;99.90
11764;DHT22;5939;56.522;14.950;2022-09-21T03:52:24;10.00;99.90
11764;DHT22;5939;56.522;14.950;2022-09-21T03:54:49;10.00;99.90
11764;DHT22;5939;56.522;14.950;2022-09-21T03:57:15;9.90;99.90
11764;DHT22;5939;56.522;14.950;2022-09-21T03:59:40;9.90;99.90
11764;DHT22;5939;56.522;14.950;2022-09-21T04:02:06;9.90;99.90
11764;DHT22;5939;56.522;14.950;2022-09-21T04:04:32;9.90;99.90
11764;DHT22;5939;56.522;14.950;2022-09-21T04:06:58;9.90;99.90
11764;DHT22;5939;56.522;14.950;2022-09-21T04:09:24;9.90;99.90
11764;DHT22;5939;56.522;14.950;2022-09-21T04:11:50;9.80;99.90
11764;DHT22;5939;56.522;14.950;2022-09-21T04:14:16;9.80;99.90
11764;DHT22;5939;56.522;14.950;2022-09-21T04:16:42;9.80;99.90
11764;DHT22;5939;56.522;14.950;2022-09-21T04:19:07;9.80;99.90
11764;DHT22;5939;56.522;14.950;2022-09-21T04:21:33;9.80;99.90
11764;DHT22;5939;56.522;14.950;2022-09-21T04:23:58;9.70;99.90
11764;DHT22;5939;56.522;14.950;2022-09-21T04:26:31;9.70;99.90
11764;DHT22;5939;56.522;14.950;2022-09-21T04:28:58;9.70;99.90
11764;DHT22;5939;56.522;14.950;2022-09-21T04:31:25;9.70;99.90
11764;DHT22;5939;56.522;14.950;2022-09-21T04:33:52;9.70;99.90
11764;DHT22;5939;56.522;14.950;2022-09-21T04:36:19;9.70;99.90
11764;DHT22;5939;56.522;14.950;2022-09-21T04:38:45;9.70;99.90
11764;DHT22;5939;56.522;14.950;2022-09-21T04:41:11;9.60;99.90
11764;DHT22;5939;56.522;14.950;2022-09-21T04:43:37;9.70;99.90
11764;DHT22;5939;56.522;14.950;2022-09-21T04:46:11;9.60;99.90
11764;DHT22;5939;56.522;14.950;2022-09-21T04:48:37;9.60;99.90
11764;DHT22;5939;56.522;14.950;2022-09-21T04:51:03;9.60;99.90
11764;DHT22;5939;56.522;14.950;2022-09-21T04:53:29;9.60;99.90
11764;DHT22;5939;56.522;14.950;2022-09-21T04:55:55;9.90;99.90
11764;DHT22;5939;56.522;14.950;2022-09-21T04:58:22;9.60;99.90
11764;DHT22;5939;56.522;14.950;2022-09-21T05:00:49;9.50;99.90
11764;DHT22;5939;56.522;14.950;2022-09-21T05:03:16;9.50;99.90
11764;DHT22;5939;56.522;14.950;2022-09-21T05:05:49;9.50;99.90
11764;DHT22;5939;56.522;14.950;2022-09-21T05:08:15;9.50;99.90
11764;DHT22;5939;56.522;14.950;2022-09-21T05:10:42;9.50;99.90
11764;DHT22;5939;56.522;14.950;2022-09-21T05:13:08;9.50;99.90
11764;DHT22;5939;56.522;14.950;2022-09-21T05:15:36;9.40;99.90
11764;DHT22;5939;56.522;14.950;2022-09-21T05:18:02;9.40;99.90
11764;DHT22;5939;56.522;14.950;2022-09-21T05:20:28;9.40;99.90
11764;DHT22;5939;56.522;14.950;2022-09-21T05:22:54;9.40;99.90
11764;DHT22;5939;56.522;14.950;2022-09-21T05:25:19;9.40;99.90
11764;DHT22;5939;56.522;14.950;2022-09-21T05:27:45;9.40;99.90
11764;DHT22;5939;56.522;14.950;2022-09-21T05:30:11;9.40;99.90
11764;DHT22;5939;56.522;14.950;2022-09-21T05:32:47;9.40;99.90
11764;DHT22;5939;56.522;14.950;2022-09-21T05:38:05;9.40;99.90
11764;DHT22;5939;56.522;14.950;2022-09-21T05:40:33;9.30;99.90
11764;DHT22;5939;56.522;14.950;2022-09-21T05:42:59;9.30;99.90
11764;DHT22;5939;56.522;14.950;2022-09-21T05:45:25;9.30;99.90
11764;DHT22;5939;56.522;14.950;2022-09-21T05:47:57;9.30;99.90
11764;DHT22;5939;56.522;14.950;2022-09-21T05:58:25;9.30;99.90
11764;DHT22;5939;56.522;14.950;2022-09-21T06:03:29;9.40;99.90
11764;DHT22;5939;56.522;14.950;2022-09-21T06:05:57;9.40;99.90
11764;DHT22;5939;56.522;14.950;2022-09-21T06:08:24;9.40;99.90
11764;DHT22;5939;56.522;14.950;2022-09-21T06:10:50;9.40;99.90
11764;DHT22;5939;56.522;14.950;2022-09-21T06:13:16;9.50;99.90
11764;DHT22;5939;56.522;14.950;2022-09-21T06:15:42;9.50;99.90
11764;DHT22;5939;56.522;14.950;2022-09-21T06:18:08;9.50;99.90
11764;DHT22;5939;56.522;14.950;2022-09-21T06:20:35;9.50;99.90
11764;DHT22;5939;56.522;14.950;2022-09-21T06:25:27;9.60;99.90
11764;DHT22;5939;56.522;14.950;2022-09-21T06:27:52;9.70;99.90
11764;DHT22;5939;56.522;14.950;2022-09-21T06:30:18;9.60;99.90
11764;DHT22;5939;56.522;14.950;2022-09-21T06:32:44;9.80;99.90
11764;DHT22;5939;56.522;14.950;2022-09-21T06:35:09;9.80;99.90
11764;DHT22;5939;56.522;14.950;2022-09-21T06:37:35;9.90;99.90
11764;DHT22;5939;56.522;14.950;2022-09-21T06:40:03;9.90;99.90
11764;DHT22;5939;56.522;14.950;2022-09-21T06:42:28;10.00;99.90
11764;DHT22;5939;56.522;14.950;2022-09-21T06:44:54;10.10;99.90
11764;DHT22;5939;56.522;14.950;2022-09-21T06:47:20;10.10;99.90
11764;DHT22;5939;56.522;14.950;2022-09-21T06:49:45;10.20;99.90
11764;DHT22;5939;56.522;14.950;2022-09-21T06:52:11;10.40;99.90
11764;DHT22;5939;56.522;14.950;2022-09-21T06:54:37;10.40;99.90
11764;DHT22;5939;56.522;14.950;2022-09-21T06:57:04;10.60;99.90
11764;DHT22;5939;56.522;14.950;2022-09-21T06:59:29;10.60;99.90
11764;DHT22;5939;56.522;14.950;2022-09-21T07:01:55;10.70;99.90
11764;DHT22;5939;56.522;14.950;2022-09-21T07:04:23;10.80;99.90
11764;DHT22;5939;56.522;14.950;2022-09-21T07:06:52;10.90;99.90
11764;DHT22;5939;56.522;14.950;2022-09-21T07:09:18;11.00;99.90
11764;DHT22;5939;56.522;14.950;2022-09-21T07:11:44;11.10;99.90
11764;DHT22;5939;56.522;14.950;2022-09-21T07:14:09;11.20;99.90
11764;DHT22;5939;56.522;14.950;2022-09-21T07:16:35;11.30;99.90
11764;DHT22;5939;56.522;14.950;2022-09-21T07:19:01;11.40;99.90
11764;DHT22;5939;56.522;14.950;2022-09-21T07:21:28;11.50;99.90
11764;DHT22;5939;56.522;14.950;2022-09-21T07:23:54;11.60;99.90
11764;DHT22;5939;56.522;14.950;2022-09-21T07:26:20;11.70;99.90
11764;DHT22;5939;56.522;14.950;2022-09-21T07:28:47;11.80;99.90
11764;DHT22;5939;56.522;14.950;2022-09-21T07:31:14;11.90;99.90
11764;DHT22;5939;56.522;14.950;2022-09-21T07:33:41;12.00;99.90
11764;DHT22;5939;56.522;14.950;2022-09-21T07:36:08;12.10;99.90
11764;DHT22;5939;56.522;14.950;2022-09-21T07:38:38;12.20;99.90
11764;DHT22;5939;56.522;14.950;2022-09-21T07:41:06;12.40;99.90
11764;DHT22;5939;56.522;14.950;2022-09-21T07:43:31;12.40;99.90
11764;DHT22;5939;56.522;14.950;2022-09-21T07:45:58;12.60;99.90
11764;DHT22;5939;56.522;14.950;2022-09-21T07:48:26;12.60;99.90
11764;DHT22;5939;56.522;14.950;2022-09-21T07:50:53;12.50;99.90
11764;DHT22;5939;56.522;14.950;2022-09-21T07:53:19;12.90;99.90
11764;DHT22;5939;56.522;14.950;2022-09-21T07:55:45;13.00;99.90
11764;DHT22;5939;56.522;14.950;2022-09-21T07:58:11;13.10;99.90
11764;DHT22;5939;56.522;14.950;2022-09-21T08:00:55;13.20;99.90
11764;DHT22;5939;56.522;14.950;2022-09-21T08:03:21;13.30;99.90
11764;DHT22;5939;56.522;14.950;2022-09-21T08:05:46;13.50;99.90
11764;DHT22;5939;56.522;14.950;2022-09-21T08:08:12;13.60;99.90
11764;DHT22;5939;56.522;14.950;2022-09-21T08:10:38;13.70;99.90
11764;DHT22;5939;56.522;14.950;2022-09-21T08:13:04;13.80;99.90
11764;DHT22;5939;56.522;14.950;2022-09-21T08:15:30;13.90;99.90
11764;DHT22;5939;56.522;14.950;2022-09-21T08:17:56;14.00;99.90
11764;DHT22;5939;56.522;14.950;2022-09-21T08:20:23;14.20;99.90
11764;DHT22;5939;56.522;14.950;2022-09-21T08:22:50;14.20;99.90
11764;DHT22;5939;56.522;14.950;2022-09-21T08:25:17;14.40;99.90
11764;DHT22;5939;56.522;14.950;2022-09-21T08:27:43;14.50;99.90
11764;DHT22;5939;56.522;14.950;2022-09-21T08:30:09;14.60;99.90
11764;DHT22;5939;56.522;14.950;2022-09-21T08:32:38;14.70;99.90
11764;DHT22;5939;56.522;14.950;2022-09-21T08:35:04;14.80;99.90
11764;DHT22;5939;56.522;14.950;2022-09-21T08:37:30;15.00;99.90
11764;DHT22;5939;56.522;14.950;2022-09-21T08:39:56;15.00;99.90
11764;DHT22;5939;56.522;14.950;2022-09-21T08:42:38;15.20;99.90
11764;DHT22;5939;56.522;14.950;2022-09-21T08:45:09;15.30;99.90
11764;DHT22;5939;56.522;14.950;2022-09-21T08:47:51;15.40;99.90
11764;DHT22;5939;56.522;14.950;2022-09-21T08:52:50;15.60;99.90
11764;DHT22;5939;56.522;14.950;2022-09-21T08:55:18;15.70;99.90
11764;DHT22;5939;56.522;14.950;2022-09-21T08:57:44;15.80;99.90
11764;DHT22;5939;56.522;14.950;2022-09-21T09:00:16;15.90;99.90
11764;DHT22;5939;56.522;14.950;2022-09-21T09:19:47;16.50;99.90
11764;DHT22;5939;56.522;14.950;2022-09-21T09:22:22;16.60;99.90
11764;DHT22;5939;56.522;14.950;2022-09-21T09:24:51;16.70;99.90
11764;DHT22;5939;56.522;14.950;2022-09-21T09:27:23;16.80;99.90
11764;DHT22;5939;56.522;14.950;2022-09-21T09:35:14;17.00;99.90
11764;DHT22;5939;56.522;14.950;2022-09-21T09:37:41;17.10;99.90
11764;DHT22;5939;56.522;14.950;2022-09-21T09:40:11;17.10;99.90
11764;DHT22;5939;56.522;14.950;2022-09-21T09:42:58;17.20;99.90
11764;DHT22;5939;56.522;14.950;2022-09-21T09:45:39;17.30;99.90
11764;DHT22;5939;56.522;14.950;2022-09-21T09:48:24;17.40;99.90
11764;DHT22;5939;56.522;14.950;2022-09-21T09:50:51;17.40;99.90
11764;DHT22;5939;56.522;14.950;2022-09-21T09:53:20;17.50;99.90
11764;DHT22;5939;56.522;14.950;2022-09-21T09:55:48;17.60;99.90
11764;DHT22;5939;56.522;14.950;2022-09-21T09:58:34;17.60;99.90
11764;DHT22;5939;56.522;14.950;2022-09-21T10:01:01;17.70;99.90
11764;DHT22;5939;56.522;14.950;2022-09-21T10:03:28;17.80;99.90
11764;DHT22;5939;56.522;14.950;2022-09-21T10:05:54;17.80;99.90
11764;DHT22;5939;56.522;14.950;2022-09-21T10:08:43;17.90;99.90
11764;DHT22;5939;56.522;14.950;2022-09-21T10:11:13;18.00;99.90
11764;DHT22;5939;56.522;14.950;2022-09-21T10:13:45;18.00;99.90
11764;DHT22;5939;56.522;14.950;2022-09-21T10:16:14;18.10;99.90
11764;DHT22;5939;56.522;14.950;2022-09-21T10:19:00;18.10;99.90
11764;DHT22;5939;56.522;14.950;2022-09-21T10:21:35;18.20;99.90
11764;DHT22;5939;56.522;14.950;2022-09-21T10:26:47;18.30;99.90
11764;DHT22;5939;56.522;14.950;2022-09-21T10:31:59;18.50;99.90
11764;DHT22;5939;56.522;14.950;2022-09-21T10:34:31;18.50;99.90
11764;DHT22;5939;56.522;14.950;2022-09-21T10:36:59;18.60;99.90
11764;DHT22;5939;56.522;14.950;2022-09-21T10:39:30;18.60;99.90
11764;DHT22;5939;56.522;14.950;2022-09-21T10:42:05;18.70;99.90
11764;DHT22;5939;56.522;14.950;2022-09-21T10:44:39;18.70;99.90
11764;DHT22;5939;56.522;14.950;2022-09-21T10:47:37;18.80;99.90
11764;DHT22;5939;56.522;14.950;2022-09-21T10:50:27;18.80;99.90
11764;DHT22;5939;56.522;14.950;2022-09-21T10:53:40;18.80;99.90
11764;DHT22;5939;56.522;14.950;2022-09-21T10:55:56;18.90;99.90
11764;DHT22;5939;56.522;14.950;2022-09-21T10:58:23;19.00;99.90
11764;DHT22;5939;56.522;14.950;2022-09-21T11:00:50;19.00;99.90
11764;DHT22;5939;56.522;14.950;2022-09-21T11:05:57;18.30;99.90
11764;DHT22;5939;56.522;14.950;2022-09-21T11:08:31;19.20;99.90
11764;DHT22;5939;56.522;14.950;2022-09-21T11:13:59;19.30;99.90
11764;DHT22;5939;56.522;14.950;2022-09-21T11:16:30;19.40;99.90
11764;DHT22;5939;56.522;14.950;2022-09-21T11:21:43;19.50;99.90
11764;DHT22;5939;56.522;14.950;2022-09-21T11:27:16;19.50;99.90
11764;DHT22;5939;56.522;14.950;2022-09-21T11:30:13;19.60;99.90
11764;DHT22;5939;56.522;14.950;2022-09-21T11:44:21;19.50;99.90
11764;DHT22;5939;56.522;14.950;2022-09-21T11:52:30;19.40;99.90
11764;DHT22;5939;56.522;14.950;2022-09-21T11:58:12;19.40;99.90
11764;DHT22;5939;56.522;14.950;2022-09-21T12:12:18;19.10;99.90
11764;DHT22;5939;56.522;14.950;2022-09-21T12:15:03;19.10;99.90
11764;DHT22;5939;56.522;14.950;2022-09-21T12:20:31;19.00;99.90
11764;DHT22;5939;56.522;14.950;2022-09-21T12:23:06;18.90;99.90
11764;DHT22;5939;56.522;14.950;2022-09-21T12:25:41;18.90;99.90
11764;DHT22;5939;56.522;14.950;2022-09-21T12:28:12;18.80;99.90
11764;DHT22;5939;56.522;14.950;2022-09-21T12:30:41;18.80;99.90
11764;DHT22;5939;56.522;14.950;2022-09-21T12:33:22;18.70;99.90
11764;DHT22;5939;56.522;14.950;2022-09-21T12:35:57;18.70;99.90
11764;DHT22;5939;56.522;14.950;2022-09-21T12:38:30;18.60;99.90
11764;DHT22;5939;56.522;14.950;2022-09-21T12:41:09;18.60;99.90
11764;DHT22;5939;56.522;14.950;2022-09-21T12:43:50;18.50;99.90
11764;DHT22;5939;56.522;14.950;2022-09-21T12:46:28;18.50;99.90
11764;DHT22;5939;56.522;14.950;2022-09-21T12:48:56;18.40;99.90
11764;DHT22;5939;56.522;14.950;2022-09-21T12:51:33;18.40;99.90
11764;DHT22;5939;56.522;14.950;2022-09-21T12:54:11;18.30;99.90
11764;DHT22;5939;56.522;14.950;2022-09-21T13:00:06;18.20;99.90
11764;DHT22;5939;56.522;14.950;2022-09-21T13:02:53;18.10;99.90
11764;DHT22;5939;56.522;14.950;2022-09-21T13:05:39;18.10;99.90
11764;DHT22;5939;56.522;14.950;2022-09-21T13:08:14;18.00;99.90
11764;DHT22;5939;56.522;14.950;2022-09-21T13:13:24;17.90;99.90
11764;DHT22;5939;56.522;14.950;2022-09-21T13:15:51;17.90;99.90
11764;DHT22;5939;56.522;14.950;2022-09-21T13:18:22;17.80;99.90
11764;DHT22;5939;56.522;14.950;2022-09-21T13:20:49;17.80;99.90
11764;DHT22;5939;56.522;14.950;2022-09-21T13:26:07;17.70;99.90
11764;DHT22;5939;56.522;14.950;2022-09-21T13:31:51;17.60;99.90
11764;DHT22;5939;56.522;14.950;2022-09-21T13:47:44;17.30;99.90
11764;DHT22;5939;56.522;14.950;2022-09-21T13:53:34;17.20;99.90
11764;DHT22;5939;56.522;14.950;2022-09-21T13:56:23;17.20;99.90
11764;DHT22;5939;56.522;14.950;2022-09-21T13:58:52;17.20;99.90
11764;DHT22;5939;56.522;14.950;2022-09-21T14:01:23;17.10;99.90
11764;DHT22;5939;56.522;14.950;2022-09-21T14:03:53;17.10;99.90
11764;DHT22;5939;56.522;14.950;2022-09-21T14:06:28;17.00;99.90
11764;DHT22;5939;56.522;14.950;2022-09-21T14:09:05;17.00;99.90
11764;DHT22;5939;56.522;14.950;2022-09-21T14:11:37;16.90;99.90
11764;DHT22;5939;56.522;14.950;2022-09-21T14:25:23;16.80;99.90
11764;DHT22;5939;56.522;14.950;2022-09-21T14:27:43;16.70;99.90
11764;DHT22;5939;56.522;14.950;2022-09-21T14:30:25;16.70;99.90
11764;DHT22;5939;56.522;14.950;2022-09-21T14:35:27;16.60;99.90
11764;DHT22;5939;56.522;14.950;2022-09-21T14:38:01;16.60;99.90
11764;DHT22;5939;56.522;14.950;2022-09-21T14:40:34;16.60;99.90
11764;DHT22;5939;56.522;14.950;2022-09-21T14:43:07;16.60;99.90
11764;DHT22;5939;56.522;14.950;2022-09-21T14:49:02;16.50;99.90
11764;DHT22;5939;56.522;14.950;2022-09-21T15:00:39;16.40;99.90
11764;DHT22;5939;56.522;14.950;2022-09-21T15:05:36;16.40;99.90
11764;DHT22;5939;56.522;14.950;2022-09-21T15:11:21;16.30;99.90
11764;DHT22;5939;56.522;14.950;2022-09-21T15:13:57;16.30;99.90
11764;DHT22;5939;56.522;14.950;2022-09-21T15:19:11;16.30;99.90
11764;DHT22;5939;56.522;14.950;2022-09-21T15:21:41;16.30;99.90
11764;DHT22;5939;56.522;14.950;2022-09-21T15:26:47;16.20;99.90
11764;DHT22;5939;56.522;14.950;2022-09-21T15:29:32;16.20;99.90
11764;DHT22;5939;56.522;14.950;2022-09-21T15:31:59;16.20;99.90
11764;DHT22;5939;56.522;14.950;2022-09-21T15:34:25;16.20;99.90
11764;DHT22;5939;56.522;14.950;2022-09-21T15:36:52;16.20;99.90
11764;DHT22;5939;56.522;14.950;2022-09-21T15:39:24;16.20;99.90
11764;DHT22;5939;56.522;14.950;2022-09-21T15:44:33;16.10;99.90
11764;DHT22;5939;56.522;14.950;2022-09-21T15:47:02;16.10;99.90
11764;DHT22;5939;56.522;14.950;2022-09-21T15:49:29;16.10;99.90
11764;DHT22;5939;56.522;14.950;2022-09-21T15:54:31;16.00;99.90
11764;DHT22;5939;56.522;14.950;2022-09-21T15:57:03;16.00;99.90
11764;DHT22;5939;56.522;14.950;2022-09-21T15:59:31;16.00;99.90
11764;DHT22;5939;56.522;14.950;2022-09-21T16:02:00;16.00;99.90
11764;DHT22;5939;56.522;14.950;2022-09-21T16:04:35;16.00;99.90
11764;DHT22;5939;56.522;14.950;2022-09-21T16:07:02;15.90;99.90
11764;DHT22;5939;56.522;14.950;2022-09-21T16:09:48;15.90;99.90
11764;DHT22;5939;56.522;14.950;2022-09-21T16:12:41;15.90;99.90
11764;DHT22;5939;56.522;14.950;2022-09-21T16:15:25;15.90;99.90
11764;DHT22;5939;56.522;14.950;2022-09-21T16:17:59;15.80;99.90
11764;DHT22;5939;56.522;14.950;2022-09-21T16:20:41;15.80;99.90
11764;DHT22;5939;56.522;14.950;2022-09-21T16:23:37;15.80;99.90
11764;DHT22;5939;56.522;14.950;2022-09-21T16:26:04;15.80;99.90
11764;DHT22;5939;56.522;14.950;2022-09-21T16:28:39;15.80;99.90
11764;DHT22;5939;56.522;14.950;2022-09-21T16:38:59;15.70;99.90
11764;DHT22;5939;56.522;14.950;2022-09-21T16:41:34;15.60;99.90
11764;DHT22;5939;56.522;14.950;2022-09-21T16:44:00;15.60;99.90
11764;DHT22;5939;56.522;14.950;2022-09-21T16:46:27;15.50;99.90
11764;DHT22;5939;56.522;14.950;2022-09-21T16:48:53;15.50;99.90
11764;DHT22;5939;56.522;14.950;2022-09-21T16:51:20;15.50;99.90
11764;DHT22;5939;56.522;14.950;2022-09-21T16:53:51;15.50;99.90
11764;DHT22;5939;56.522;14.950;2022-09-21T16:56:17;15.40;99.90
11764;DHT22;5939;56.522;14.950;2022-09-21T16:58:43;15.40;99.90
11764;DHT22;5939;56.522;14.950;2022-09-21T17:01:11;15.40;99.90
11764;DHT22;5939;56.522;14.950;2022-09-21T17:03:41;15.30;99.90
11764;DHT22;5939;56.522;14.950;2022-09-21T17:08:41;15.30;99.90
11764;DHT22;5939;56.522;14.950;2022-09-21T17:11:06;15.30;99.90
11764;DHT22;5939;56.522;14.950;2022-09-21T17:13:32;15.20;99.90
11764;DHT22;5939;56.522;14.950;2022-09-21T17:15:58;15.20;99.90
11764;DHT22;5939;56.522;14.950;2022-09-21T17:18:24;15.10;99.90
11764;DHT22;5939;56.522;14.950;2022-09-21T17:20:49;15.10;99.90
11764;DHT22;5939;56.522;14.950;2022-09-21T17:23:15;15.10;99.90
11764;DHT22;5939;56.522;14.950;2022-09-21T17:25:41;15.00;99.90
11764;DHT22;5939;56.522;14.950;2022-09-21T17:28:16;15.00;99.90
11764;DHT22;5939;56.522;14.950;2022-09-21T17:30:43;15.00;99.90
11764;DHT22;5939;56.522;14.950;2022-09-21T17:33:11;14.90;99.90
11764;DHT22;5939;56.522;14.950;2022-09-21T17:35:39;14.90;99.90
11764;DHT22;5939;56.522;14.950;2022-09-21T17:38:05;14.90;99.90
11764;DHT22;5939;56.522;14.950;2022-09-21T17:40:33;14.80;99.90
11764;DHT22;5939;56.522;14.950;2022-09-21T17:43:34;14.80;99.90
11764;DHT22;5939;56.522;14.950;2022-09-21T17:47:10;14.80;99.90
11764;DHT22;5939;56.522;14.950;2022-09-21T17:49:14;14.70;99.90
11764;DHT22;5939;56.522;14.950;2022-09-21T17:51:40;14.70;99.90
11764;DHT22;5939;56.522;14.950;2022-09-21T17:54:24;14.60;99.90
11764;DHT22;5939;56.522;14.950;2022-09-21T17:57:20;14.60;99.90
11764;DHT22;5939;56.522;14.950;2022-09-21T17:59:54;14.60;99.90
11764;DHT22;5939;56.522;14.950;2022-09-21T18:02:24;14.50;99.90
11764;DHT22;5939;56.522;14.950;2022-09-21T18:04:57;14.50;99.90
11764;DHT22;5939;56.522;14.950;2022-09-21T18:07:23;14.50;99.90
11764;DHT22;5939;56.522;14.950;2022-09-21T18:09:50;14.40;99.90
11764;DHT22;5939;56.522;14.950;2022-09-21T18:12:57;14.40;99.90
11764;DHT22;5939;56.522;14.950;2022-09-21T18:15:33;14.30;99.90
11764;DHT22;5939;56.522;14.950;2022-09-21T18:26:17;14.20;99.90
11764;DHT22;5939;56.522;14.950;2022-09-21T18:28:46;14.10;99.90
11764;DHT22;5939;56.522;14.950;2022-09-21T18:38:14;14.00;99.90
11764;DHT22;5939;56.522;14.950;2022-09-21T18:46:10;13.90;99.90
11764;DHT22;5939;56.522;14.950;2022-09-21T18:53:47;13.80;99.90
11764;DHT22;5939;56.522;14.950;2022-09-21T18:56:14;13.80;99.90
11764;DHT22;5939;56.522;14.950;2022-09-21T18:58:40;13.70;99.90
11764;DHT22;5939;56.522;14.950;2022-09-21T19:01:12;13.70;99.90
11764;DHT22;5939;56.522;14.950;2022-09-21T19:03:39;13.70;99.90
11764;DHT22;5939;56.522;14.950;2022-09-21T19:06:19;13.70;99.90
11764;DHT22;5939;56.522;14.950;2022-09-21T19:17:41;13.50;99.90
11764;DHT22;5939;56.522;14.950;2022-09-21T19:20:18;13.50;99.90
11764;DHT22;5939;56.522;14.950;2022-09-21T19:25:51;13.40;99.90
11764;DHT22;5939;56.522;14.950;2022-09-21T19:28:44;13.40;99.90
11764;DHT22;5939;56.522;14.950;2022-09-21T19:31:14;13.30;99.90
11764;DHT22;5939;56.522;14.950;2022-09-21T19:33:42;13.30;99.90
11764;DHT22;5939;56.522;14.950;2022-09-21T19:36:10;13.30;99.90
11764;DHT22;5939;56.522;14.950;2022-09-21T19:38:36;13.30;99.90
11764;DHT22;5939;56.522;14.950;2022-09-21T19:49:31;13.20;99.90
11764;DHT22;5939;56.522;14.950;2022-09-21T19:52:02;13.10;99.90
11764;DHT22;5939;56.522;14.950;2022-09-21T19:54:29;13.10;99.90
11764;DHT22;5939;56.522;14.950;2022-09-21T19:57:15;13.10;99.90
11764;DHT22;5939;56.522;14.950;2022-09-21T20:00:00;13.00;99.90
11764;DHT22;5939;56.522;14.950;2022-09-21T20:02:28;13.00;99.90
11764;DHT22;5939;56.522;14.950;2022-09-21T20:05:12;13.00;99.90